Time;durP1;ratioP1;P1;durP2;ratioP2;P2;SDS_P1;SDS_P2;PMS_P1;PMS_P2;Temp;Humidity;BMP_temperature;BMP_pressure;BME280_temperature;BME280_humidity;BME280_pressure;Samples;Min_cycle;Max_cycle;Signal;HPM_P1;HPM_P2
2023/02/14 00:01:59;;;;;;;24.23;19.13;;;-1.20;99.90;;;-0.52;100.00;99797.41;5224575;28;20197;-83
2023/02/14 00:04:33;;;;;;;25.13;19.73;;;-1.20;99.90;;;-0.56;100.00;99802.75;5228604;28;20754;-83
2023/02/14 00:07:06;;;;;;;27.27;19.77;;;-1.30;99.90;;;-0.57;100.00;99793.44;5227973;28;20628;-83
2023/02/14 00:09:39;;;;;;;26.37;19.67;;;-1.30;99.90;;;-0.59;100.00;99794.81;5227930;28;20266;-83
2023/02/14 00:12:12;;;;;;;24.10;19.70;;;-1.30;99.90;;;-0.60;100.00;99792.09;5223541;28;20205;-83
2023/02/14 00:17:37;;;;;;;25.13;18.73;;;-1.40;99.90;;;-0.77;100.00;99800.84;5225700;28;20199;-83
2023/02/14 00:20:11;;;;;;;27.23;20.43;;;-1.40;99.90;;;-0.80;100.00;99800.44;5224716;28;20207;-83
2023/02/14 00:22:44;;;;;;;28.37;22.40;;;-1.40;99.90;;;-0.86;100.00;99806.25;5227950;28;20232;-82
2023/02/14 00:25:18;;;;;;;29.47;22.37;;;-1.50;99.90;;;-0.85;100.00;99803.06;5225716;28;20215;-83
2023/02/14 00:27:53;;;;;;;29.30;21.10;;;-1.50;99.90;;;-0.79;100.00;99803.84;5224536;28;20202;-83
2023/02/14 00:30:26;;;;;;;26.67;19.83;;;-1.40;99.90;;;-0.79;100.00;99803.84;5223227;28;20233;-82
2023/02/14 00:33:00;;;;;;;29.40;21.23;;;-1.40;99.90;;;-0.87;100.00;99802.84;5223122;28;20345;-83
2023/02/14 00:35:38;;;;;;;29.17;21.77;;;-1.50;99.90;;;-0.89;100.00;99810.84;5223520;28;20280;-82
2023/02/14 00:38:11;;;;;;;25.93;19.33;;;-1.50;99.90;;;-0.85;100.00;99803.06;5217405;28;20698;-82
2023/02/14 00:40:44;;;;;;;27.07;20.03;;;-1.50;99.90;;;-0.87;100.00;99805.34;5221175;28;20201;-83
2023/02/14 00:43:17;;;;;;;30.37;20.37;;;-1.50;99.90;;;-0.93;100.00;99800.41;5225791;28;20213;-82
2023/02/14 00:45:50;;;;;;;29.07;20.77;;;-1.50;99.90;;;-0.91;100.00;99794.00;5222700;28;20202;-83
2023/02/14 00:48:25;;;;;;;32.43;21.17;;;-1.50;99.90;;;-0.99;100.00;99802.13;5227574;28;20628;-82
2023/02/14 00:50:58;;;;;;;29.50;22.00;;;-1.50;99.90;;;-1.00;100.00;99801.91;5217861;28;20231;-83
2023/02/14 00:53:32;;;;;;;28.50;20.17;;;-1.60;99.90;;;-1.05;100.00;99801.31;5218144;28;20226;-83
2023/02/14 00:56:05;;;;;;;28.60;21.80;;;-1.60;99.90;;;-1.08;100.00;99810.03;5216567;28;20226;-83
2023/02/14 00:58:39;;;;;;;30.00;20.93;;;-1.70;99.90;;;-1.06;100.00;99804.53;5227804;28;20281;-83
2023/02/14 01:01:13;;;;;;;28.73;22.47;;;-1.70;99.90;;;-1.17;100.00;99793.06;5227694;28;20208;-82
2023/02/14 01:03:48;;;;;;;31.20;22.67;;;-1.70;99.90;;;-1.31;100.00;99802.84;5222760;28;20221;-82
2023/02/14 01:06:21;;;;;;;32.10;22.60;;;-1.80;99.90;;;-1.37;100.00;99795.41;5215549;28;20217;-82
2023/02/14 01:08:54;;;;;;;31.83;22.03;;;-1.80;99.90;;;-1.39;100.00;99801.81;5220185;28;20212;-82
2023/02/14 01:11:27;;;;;;;30.73;22.57;;;-1.80;99.90;;;-1.33;100.00;99799.22;5223784;28;20193;-82
2023/02/14 01:14:02;;;;;;;31.63;23.40;;;-1.80;99.90;;;-1.27;100.00;99800.03;5224592;28;20236;-82
2023/02/14 01:16:36;;;;;;;32.90;22.50;;;-1.80;99.90;;;-1.32;100.00;99800.13;5227741;28;20881;-82
2023/02/14 01:19:10;;;;;;;32.53;22.13;;;-1.80;99.90;;;-1.50;100.00;99809.50;5226261;28;20200;-83
2023/02/14 01:21:44;;;;;;;30.97;22.33;;;-1.90;99.90;;;-1.39;100.00;99803.44;5221821;28;20189;-82
2023/02/14 01:24:17;;;;;;;30.23;21.87;;;-1.90;99.90;;;-1.26;100.00;99800.94;5223835;28;20320;-83
2023/02/14 01:26:50;;;;;;;32.60;22.60;;;-1.80;99.90;;;-1.26;100.00;99805.97;5227444;28;20229;-83
2023/02/14 01:29:23;;;;;;;32.30;23.43;;;-1.80;99.90;;;-1.27;100.00;99801.66;5220899;28;20201;-83
2023/02/14 01:31:56;;;;;;;32.03;22.63;;;-1.80;99.90;;;-1.34;100.00;99797.44;5226496;28;20197;-83
2023/02/14 01:34:31;;;;;;;31.30;22.03;;;-1.80;99.90;;;-1.31;100.00;99804.47;5221886;28;20230;-83
2023/02/14 01:37:04;;;;;;;31.70;22.57;;;-1.80;99.90;;;-1.33;100.00;99799.22;5225185;28;20204;-82
2023/02/14 01:39:37;;;;;;;32.27;22.97;;;-1.80;99.90;;;-1.44;100.00;99791.88;5222443;28;20197;-83
2023/02/14 01:42:11;;;;;;;33.83;23.80;;;-1.90;99.90;;;-1.31;100.00;99807.88;5221724;28;20205;-83
2023/02/14 01:45:08;;;;;;;35.20;24.33;;;-1.80;99.90;;;-1.43;100.00;99804.63;5222882;28;20216;-83
2023/02/14 01:47:44;;;;;;;34.27;23.07;;;-1.90;99.90;;;-1.48;100.00;99808.13;5221818;28;20220;-83
2023/02/14 01:50:23;;;;;;;30.53;22.50;;;-1.90;99.90;;;-1.44;100.00;99797.78;5224622;28;20284;-83
2023/02/14 01:53:02;;;;;;;32.80;23.13;;;-1.90;99.90;;;-1.39;100.00;99809.34;5219876;28;20201;-83
2023/02/14 01:55:39;;;;;;;34.53;23.53;;;-1.90;99.90;;;-1.33;100.00;99803.34;5219382;28;20213;-82
2023/02/14 01:58:18;;;;;;;32.17;23.60;;;-1.80;99.90;;;-1.40;100.00;99802.53;5226866;28;20223;-83
2023/02/14 02:00:57;;;;;;;29.03;22.87;;;-1.90;99.90;;;-1.31;100.00;99802.84;5222041;28;20409;-83
2023/02/14 02:03:35;;;;;;;31.43;22.90;;;-1.80;99.90;;;-1.33;100.00;99796.72;5225155;28;20279;-83
2023/02/14 02:06:14;;;;;;;33.23;22.23;;;-1.90;99.90;;;-1.48;100.00;99793.06;5221346;28;20232;-82
2023/02/14 02:09:04;;;;;;;32.43;22.43;;;-1.90;99.90;;;-1.55;100.00;99792.94;5224846;28;20228;-83
2023/02/14 02:11:38;;;;;;;33.07;22.73;;;-2.00;99.90;;;-1.53;100.00;99796.56;5222366;28;20213;-83
2023/02/14 02:14:16;;;;;;;32.63;23.03;;;-2.00;99.90;;;-1.54;100.00;99798.88;5217484;28;20225;-82
2023/02/14 02:17:16;;;;;;;32.93;23.83;;;-2.10;99.90;;;-1.51;100.00;99795.16;5224434;28;20280;-82
2023/02/14 02:20:33;;;;;;;33.97;23.17;;;-2.00;99.90;;;-1.39;100.00;99789.28;5220387;28;20201;-83
2023/02/14 02:23:53;;;;;;;31.47;23.27;;;-1.90;99.90;;;-1.44;100.00;99800.28;5200880;28;20211;-83
2023/02/14 02:27:07;;;;;;;32.67;22.50;;;-2.00;99.90;;;-1.45;100.00;99795.09;5222422;28;20219;-83
2023/02/14 02:30:36;;;;;;;31.63;23.30;;;-2.00;99.90;;;-1.60;100.00;99788.91;5220244;28;20201;-83
2023/02/14 02:34:04;;;;;;;32.43;22.50;;;-2.00;99.90;;;-1.63;100.00;99781.88;5218348;28;20280;-83
2023/02/14 02:37:02;;;;;;;32.10;21.93;;;-2.10;99.90;;;-1.59;100.00;99784.09;5221251;28;20197;-82
2023/02/14 02:39:49;;;;;;;34.63;22.43;;;-2.00;99.90;;;-1.61;100.00;99789.59;5223546;28;20208;-83
2023/02/14 02:42:34;;;;;;;33.80;24.13;;;-2.10;99.90;;;-1.64;100.00;99774.16;5226145;28;20193;-82
2023/02/14 02:45:13;;;;;;;31.93;23.03;;;-2.10;99.90;;;-1.55;100.00;99776.97;5222439;28;20278;-82
2023/02/14 02:47:59;;;;;;;30.17;21.87;;;-2.10;99.90;;;-1.52;100.00;99774.88;5221769;28;20678;-83
2023/02/14 02:53:42;;;;;;;31.20;22.33;;;-2.00;99.90;;;-1.51;100.00;99787.66;5153975;28;20401;-83
2023/02/14 02:59:19;;;;;;;28.97;21.43;;;-2.00;99.90;;;-1.46;100.00;99776.63;5222047;28;20661;-83
2023/02/14 03:01:59;;;;;;;34.40;23.73;;;-2.00;99.90;;;-1.52;100.00;99770.78;5225075;28;20219;-83
2023/02/14 03:07:37;;;;;;;33.00;21.47;;;-2.00;99.90;;;-1.43;100.00;99774.53;5220608;28;20201;-83
2023/02/14 03:10:17;;;;;;;30.27;22.00;;;-2.00;99.90;;;-1.52;100.00;99785.81;5225563;28;20205;-83
2023/02/14 03:13:31;;;;;;;31.57;21.73;;;-2.00;99.90;;;-1.44;100.00;99777.72;5225143;28;20240;-83
2023/02/14 03:16:31;;;;;;;31.97;21.27;;;-2.00;99.90;;;-1.46;100.00;99771.63;5224477;28;20212;-83
2023/02/14 03:22:45;;;;;;;32.77;23.03;;;-1.90;99.90;;;-1.34;100.00;99773.94;5222376;28;20698;-83
2023/02/14 03:25:32;;;;;;;31.53;22.17;;;-1.90;99.90;;;-1.30;100.00;99767.03;5228875;28;20225;-82
2023/02/14 03:28:17;;;;;;;29.13;20.50;;;-1.90;99.90;;;-1.32;100.00;99765.00;5225122;28;20221;-83
2023/02/14 03:31:01;;;;;;;28.67;20.57;;;-1.90;99.90;;;-1.32;100.00;99768.41;5225681;28;20577;-82
2023/02/14 03:33:44;;;;;;;30.37;20.43;;;-1.90;99.90;;;-1.27;100.00;99774.06;5229418;28;20225;-84
2023/02/14 03:36:23;;;;;;;30.83;21.73;;;-1.90;99.90;;;-1.25;100.00;99777.69;5227847;28;20731;-82
2023/02/14 03:39:02;;;;;;;29.70;21.03;;;-1.80;99.90;;;-1.23;100.00;99773.75;5225073;28;20193;-83
2023/02/14 03:41:43;;;;;;;29.40;22.07;;;-1.80;99.90;;;-1.29;100.00;99770.44;5227823;28;20285;-82
2023/02/14 03:44:21;;;;;;;33.83;22.50;;;-1.90;99.90;;;-1.18;100.00;99770.25;5229051;28;20225;-82
2023/02/14 03:46:59;;;;;;;37.33;25.63;;;-1.90;99.90;;;-1.18;100.00;99773.66;5220729;28;20741;-82
2023/02/14 03:49:37;;;;;;;36.93;24.80;;;-1.90;99.90;;;-1.16;100.00;99776.41;5221663;28;20281;-82
2023/02/14 03:52:12;;;;;;;36.00;24.73;;;-1.90;99.90;;;-1.23;100.00;99776.28;5226618;28;20243;-83
2023/02/14 03:54:47;;;;;;;33.63;23.97;;;-1.90;99.90;;;-1.26;100.00;99775.84;5222035;28;20259;-82
2023/02/14 03:57:27;;;;;;;31.40;22.30;;;-2.00;99.90;;;-1.31;100.00;99779.38;5226318;28;20232;-82
2023/02/14 04:00:00;;;;;;;29.60;20.40;;;-2.00;99.90;;;-1.51;100.00;99785.13;5229630;28;20203;-83
2023/02/14 04:02:39;;;;;;;28.80;19.37;;;-2.10;99.90;;;-1.59;100.00;99783.19;5222469;28;20568;-81
2023/02/14 04:05:17;;;;;;;28.60;20.10;;;-2.20;99.90;;;-1.58;100.00;99790.00;5228877;28;20237;-82
2023/02/14 04:07:53;;;;;;;28.90;19.30;;;-2.20;99.90;;;-1.52;100.00;99792.44;5228615;28;20193;-82
2023/02/14 04:10:27;;;;;;;28.37;20.83;;;-2.10;99.90;;;-1.58;100.00;99782.50;5228148;28;20284;-82
2023/02/14 04:13:01;;;;;;;28.37;20.07;;;-2.20;99.90;;;-1.61;100.00;99782.06;5223784;28;20722;-82
2023/02/14 04:15:34;;;;;;;28.07;20.97;;;-2.20;99.90;;;-1.61;100.00;99784.59;5225708;28;20294;-82
2023/02/14 04:20:59;;;;;;;30.80;19.73;;;-2.20;99.90;;;-1.79;100.00;99782.13;5228473;28;20196;-82
2023/02/14 04:23:33;;;;;;;28.13;19.83;;;-2.30;99.90;;;-1.83;100.00;99775.78;5224491;28;20217;-83
2023/02/14 04:26:06;;;;;;;31.37;21.60;;;-2.40;99.90;;;-1.83;100.00;99771.69;5234501;28;20180;-82
2023/02/14 04:28:40;;;;;;;29.07;20.13;;;-2.30;99.90;;;-1.77;100.00;99775.69;5241287;28;20210;-82
2023/02/14 04:31:13;;;;;;;27.90;20.90;;;-2.30;99.90;;;-1.83;100.00;99771.69;5242730;28;20204;-82
2023/02/14 04:33:47;;;;;;;31.70;21.60;;;-2.40;99.90;;;-1.79;100.00;99767.97;5241862;28;20238;-82
2023/02/14 04:36:20;;;;;;;29.03;20.13;;;-2.30;99.90;;;-1.83;100.00;99766.66;5228416;28;20289;-83
2023/02/14 04:38:53;;;;;;;27.00;19.20;;;-2.40;99.90;;;-1.85;100.00;99757.13;5248402;28;20211;-81
2023/02/14 04:41:26;;;;;;;27.97;20.27;;;-2.40;99.90;;;-1.84;100.00;99764.84;5244761;28;20212;-81
2023/02/14 04:44:00;;;;;;;27.73;19.70;;;-2.40;99.90;;;-1.78;100.00;99764.75;5248212;28;20213;-81
2023/02/14 04:46:33;;;;;;;27.53;18.87;;;-2.30;99.90;;;-1.76;100.00;99765.00;5245188;28;20219;-81
2023/02/14 04:49:06;;;;;;;32.07;19.93;;;-2.30;99.90;;;-1.87;100.00;99758.50;5245720;28;20189;-82
2023/02/14 04:51:40;;;;;;;29.80;20.97;;;-2.40;99.90;;;-1.86;100.00;99756.22;5245504;28;20181;-81
2023/02/14 04:54:13;;;;;;;28.67;19.80;;;-2.40;99.90;;;-1.90;100.00;99751.47;5242739;28;20271;-82
2023/02/14 04:56:46;;;;;;;30.27;20.63;;;-2.40;99.90;;;-1.86;100.00;99757.81;5244447;28;20213;-81
2023/02/14 04:59:21;;;;;;;27.80;21.17;;;-2.40;99.90;;;-1.91;100.00;99756.31;5244432;28;20214;-82
2023/02/14 05:01:56;;;;;;;29.87;21.07;;;-2.40;99.90;;;-1.93;100.00;99758.59;5240397;28;20249;-81
2023/02/14 05:04:29;;;;;;;29.60;19.87;;;-2.40;99.90;;;-1.92;100.00;99760.38;5241729;28;21577;-83
2023/02/14 05:07:03;;;;;;;29.40;20.10;;;-2.40;99.90;;;-1.95;100.00;99761.59;5240920;28;20197;-80
2023/02/14 05:09:36;;;;;;;28.40;19.50;;;-2.40;99.90;;;-1.89;100.00;99759.91;5243576;28;20217;-83
2023/02/14 05:12:10;;;;;;;30.60;20.30;;;-2.40;99.90;;;-1.92;100.00;99765.41;5248922;28;20264;-83
2023/02/14 05:14:44;;;;;;;29.00;20.67;;;-2.40;99.90;;;-1.90;100.00;99753.09;5241706;28;20216;-82
2023/02/14 05:17:17;;;;;;;29.07;19.90;;;-2.40;99.90;;;-1.93;100.00;99750.19;5245559;28;20243;-81
2023/02/14 05:19:50;;;;;;;27.73;19.00;;;-2.40;99.90;;;-1.92;100.00;99755.38;5245645;28;20197;-82
2023/02/14 05:22:23;;;;;;;28.10;19.90;;;-2.40;99.90;;;-1.85;100.00;99754.63;5241649;28;20204;-81
2023/02/14 05:24:56;;;;;;;27.93;20.37;;;-2.40;99.90;;;-1.86;100.00;99745.28;5237627;28;20248;-80
2023/02/14 05:27:30;;;;;;;30.43;20.77;;;-2.40;99.90;;;-1.79;100.00;99752.94;5239608;28;20205;-80
2023/02/14 05:30:05;;;;;;;29.57;21.37;;;-2.40;99.90;;;-1.71;100.00;99748.97;5241631;28;20284;-80
2023/02/14 05:32:39;;;;;;;30.93;21.73;;;-2.30;99.90;;;-1.63;100.00;99750.88;5242551;28;20236;-80
2023/02/14 05:35:12;;;;;;;30.50;21.00;;;-2.20;99.90;;;-1.62;100.00;99742.69;5244137;28;20225;-80
2023/02/14 05:37:45;;;;;;;31.27;21.20;;;-2.20;99.90;;;-1.62;100.00;99743.59;5238814;28;20221;-81
2023/02/14 05:40:18;;;;;;;28.37;20.63;;;-2.20;99.90;;;-1.60;100.00;99741.28;5234039;28;20213;-81
2023/02/14 05:42:52;;;;;;;30.70;21.20;;;-2.20;99.90;;;-1.57;100.00;99741.69;5233938;28;20273;-81
2023/02/14 05:45:27;;;;;;;29.50;20.80;;;-2.20;99.90;;;-1.55;100.00;99739.38;5238782;28;20217;-81
2023/02/14 05:48:00;;;;;;;28.97;21.17;;;-2.20;99.90;;;-1.56;100.00;99738.47;5239259;28;20211;-80
2023/02/14 05:50:33;;;;;;;31.63;21.03;;;-2.20;99.90;;;-1.64;100.00;99739.06;5234867;28;20248;-80
2023/02/14 05:53:06;;;;;;;32.00;22.10;;;-2.20;99.90;;;-1.72;100.00;99744.63;5236781;28;20235;-81
2023/02/14 05:55:40;;;;;;;27.17;20.27;;;-2.30;99.90;;;-1.71;100.00;99738.94;5235835;28;20220;-80
2023/02/14 05:58:13;;;;;;;30.93;22.83;;;-2.30;99.90;;;-1.73;100.00;99742.84;5243866;28;20284;-81
2023/02/14 06:00:47;;;;;;;27.13;19.83;;;-2.30;99.90;;;-1.70;100.00;99735.72;5243037;28;20267;-81
2023/02/14 06:03:20;;;;;;;26.03;20.77;;;-2.30;99.90;;;-1.69;100.00;99747.56;5238813;28;20216;-83
2023/02/14 06:05:53;;;;;;;29.30;21.53;;;-2.30;99.90;;;-1.76;100.00;99748.34;5246989;28;20211;-81
2023/02/14 06:08:27;;;;;;;30.37;21.50;;;-2.30;99.90;;;-1.74;100.00;99746.97;5245856;28;20197;-80
2023/02/14 06:11:00;;;;;;;31.13;22.80;;;-2.30;99.90;;;-1.70;100.00;99739.13;5239728;28;20235;-80
2023/02/14 06:13:33;;;;;;;30.40;21.50;;;-2.30;99.90;;;-1.67;100.00;99748.66;5246044;28;20224;-81
2023/02/14 06:16:08;;;;;;;31.40;20.97;;;-2.30;99.90;;;-1.65;100.00;99748.19;5242905;28;20213;-81
2023/02/14 06:18:41;;;;;;;28.83;20.30;;;-2.30;99.90;;;-1.65;100.00;99760.72;5240412;28;20228;-81
2023/02/14 06:21:14;;;;;;;27.60;20.70;;;-2.40;99.90;;;-1.62;100.00;99762.72;5239597;28;20273;-81
2023/02/14 06:23:47;;;;;;;29.07;20.83;;;-2.40;99.90;;;-1.62;100.00;99765.25;5240227;28;20280;-81
2023/02/14 06:26:20;;;;;;;25.97;19.70;;;-2.40;99.90;;;-1.65;100.00;99773.25;5244548;28;20201;-81
2023/02/14 06:28:54;;;;;;;25.57;19.77;;;-2.50;99.90;;;-1.68;100.00;99771.94;5239244;28;20580;-83
2023/02/14 06:31:28;;;;;;;29.07;20.33;;;-2.50;99.90;;;-1.76;100.00;99772.50;5237851;28;20205;-81
2023/02/14 06:34:02;;;;;;;26.63;20.33;;;-2.60;99.90;;;-1.80;100.00;99778.72;5237503;28;20224;-81
2023/02/14 06:36:35;;;;;;;27.43;20.10;;;-2.60;99.90;;;-1.88;100.00;99782.69;5234909;28;20273;-80
2023/02/14 06:39:08;;;;;;;28.23;19.80;;;-2.60;99.90;;;-1.90;100.00;99779.06;5238269;28;20671;-80
2023/02/14 06:41:41;;;;;;;26.23;18.83;;;-2.70;99.90;;;-1.88;100.00;99779.28;5230740;28;20562;-81
2023/02/14 06:44:14;;;;;;;24.10;18.57;;;-2.70;99.90;;;-1.91;100.00;99782.25;5240872;28;20256;-80
2023/02/14 06:46:49;;;;;;;27.47;19.73;;;-2.60;99.90;;;-2.04;100.00;99781.28;5234603;28;20224;-81
2023/02/14 06:49:22;;;;;;;29.23;20.17;;;-2.60;99.90;;;-2.04;100.00;99781.28;5237200;28;20199;-80
2023/02/14 06:51:55;;;;;;;28.27;20.00;;;-2.60;99.90;;;-1.91;100.00;99772.25;5241898;28;20228;-80
2023/02/14 06:54:29;;;;;;;28.40;20.70;;;-2.50;99.90;;;-1.87;100.00;99773.56;5235680;28;20646;-81
2023/02/14 06:57:02;;;;;;;28.53;20.50;;;-2.40;99.90;;;-1.77;100.00;99775.69;5241499;28;20304;-80
2023/02/14 06:59:35;;;;;;;33.20;21.87;;;-2.40;99.90;;;-1.73;100.00;99775.41;5241255;28;20256;-80
2023/02/14 07:02:11;;;;;;;29.23;20.37;;;-2.30;99.90;;;-1.62;100.00;99773.66;5243038;28;20219;-83
2023/02/14 07:04:44;;;;;;;29.60;21.23;;;-2.20;99.90;;;-1.50;100.00;99778.50;5238117;28;20229;-80
2023/02/14 07:07:17;;;;;;;30.70;21.80;;;-2.10;99.90;;;-1.55;100.00;99774.47;5237922;28;20205;-83
2023/02/14 07:09:50;;;;;;;28.27;20.07;;;-2.10;99.90;;;-1.46;100.00;99784.16;5245403;28;20268;-82
2023/02/14 07:12:23;;;;;;;27.13;20.37;;;-2.10;99.90;;;-1.28;100.00;99774.78;5240718;28;20224;-81
2023/02/14 07:14:56;;;;;;;29.40;20.83;;;-1.90;99.90;;;-1.08;100.00;99775.81;5240342;28;20232;-83
2023/02/14 07:17:31;;;;;;;29.03;21.17;;;-1.80;99.90;;;-0.93;100.00;99772.81;5237453;28;20233;-81
2023/02/14 07:20:05;;;;;;;29.37;20.43;;;-1.60;99.90;;;-0.84;100.00;99769.72;5237281;28;20197;-82
2023/02/14 07:22:39;;;;;;;28.17;20.50;;;-1.50;99.90;;;-0.68;100.00;99766.00;5240713;28;20228;-80
2023/02/14 07:25:13;;;;;;;28.20;20.20;;;-1.40;99.90;;;-0.60;100.00;99770.44;5241524;28;20243;-82
2023/02/14 07:27:46;;;;;;;29.20;20.47;;;-1.30;99.90;;;-0.41;100.00;99762.75;5232623;28;20194;-82
2023/02/14 07:30:19;;;;;;;29.23;20.43;;;-1.10;99.90;;;-0.23;100.00;99757.59;5238621;28;20199;-81
2023/02/14 07:32:54;;;;;;;28.23;21.07;;;-0.90;99.90;;;-0.02;99.19;99757.84;5241725;28;20198;-82
2023/02/14 07:35:27;;;;;;;28.17;20.20;;;-0.70;99.90;;;0.17;99.12;99762.72;5238730;28;20219;-81
2023/02/14 07:38:00;;;;;;;26.60;20.80;;;-0.50;99.90;;;0.31;97.92;99761.97;5240134;28;20220;-82
2023/02/14 07:40:33;;;;;;;26.97;19.47;;;-0.40;99.90;;;0.47;97.86;99759.78;5236143;28;20201;-83
2023/02/14 07:43:07;;;;;;;28.67;20.10;;;-0.30;99.90;;;0.64;97.64;99747.72;5224511;28;20682;-84
2023/02/14 07:45:40;;;;;;;23.73;19.37;;;-0.10;99.90;;;0.84;97.53;99751.13;5222572;28;20232;-83
2023/02/14 07:48:14;;;;;;;26.50;20.03;;;0.10;99.90;;;1.00;96.73;99747.97;5225960;28;20252;-83
2023/02/14 07:50:48;;;;;;;24.97;19.33;;;0.20;99.90;;;1.12;96.08;99754.56;5226336;28;20204;-83
2023/02/14 07:53:21;;;;;;;26.33;20.30;;;0.40;99.90;;;1.21;94.39;99745.63;5230447;28;20255;-83
2023/02/14 07:55:54;;;;;;;27.10;20.50;;;0.40;99.90;;;1.38;93.51;99749.31;5229237;28;20240;-83
2023/02/14 07:58:27;;;;;;;27.37;20.70;;;0.60;99.90;;;1.42;91.55;99744.81;5223783;28;20222;-83
2023/02/14 08:01:00;;;;;;;25.03;19.53;;;0.60;99.90;;;1.44;92.18;99745.94;5228582;28;20623;-83
2023/02/14 08:03:35;;;;;;;24.73;19.03;;;0.60;99.90;;;1.44;90.47;99740.88;5222363;28;20232;-81
2023/02/14 08:06:08;;;;;;;23.73;18.97;;;0.70;99.90;;;1.44;90.45;99747.56;5223118;28;20217;-82
2023/02/14 08:08:42;;;;;;;23.80;19.17;;;0.60;99.90;;;1.63;90.52;99758.25;5228195;28;20201;-82
2023/02/14 08:12:57;;;;;;;25.97;19.97;;;0.80;99.90;;;1.82;89.73;99756.34;5224371;28;20204;-82
2023/02/14 08:14:08;;;;;;;25.60;19.80;;;1.00;99.90;;;1.91;90.63;99757.47;5225663;28;20226;-83
2023/02/14 08:16:41;;;;;;;24.93;19.70;;;1.10;99.90;;;2.11;89.72;99752.28;5230221;28;20345;-82
2023/02/14 08:19:15;;;;;;;24.57;19.30;;;1.30;99.90;;;2.10;87.96;99760.59;5228088;28;20605;-82
2023/02/14 08:21:48;;;;;;;23.50;19.53;;;1.30;99.90;;;2.05;89.24;99756.59;5221964;28;20254;-83
2023/02/14 08:24:21;;;;;;;24.87;19.20;;;1.20;99.90;;;2.19;88.87;99761.69;5224466;28;20253;-82
2023/02/14 08:26:54;;;;;;;25.80;20.33;;;1.30;99.90;;;2.35;88.54;99744.25;5224454;28;20664;-82
2023/02/14 08:29:28;;;;;;;27.37;21.30;;;1.60;99.90;;;2.56;90.55;99746.78;5225326;28;20197;-82
2023/02/14 08:32:01;;;;;;;25.53;20.70;;;1.80;99.90;;;2.97;87.89;99753.28;5227203;28;20208;-82
2023/02/14 08:34:35;;;;;;;25.63;20.63;;;2.20;99.90;;;2.99;87.11;99744.25;5223849;28;20285;-82
2023/02/14 08:37:08;;;;;;;25.60;20.83;;;2.30;99.90;;;2.67;86.82;99748.06;5229563;28;20313;-82
2023/02/14 08:39:42;;;;;;;26.23;20.40;;;2.20;99.90;;;2.84;88.37;99745.00;5213176;28;20212;-82
2023/02/14 08:42:15;;;;;;;25.67;20.50;;;2.30;99.90;;;3.09;88.13;99736.09;5230789;28;20286;-82
2023/02/14 08:44:48;;;;;;;25.87;19.83;;;2.40;99.90;;;3.27;87.62;99735.72;5227847;28;20229;-82
2023/02/14 08:47:21;;;;;;;23.80;18.70;;;2.60;99.90;;;3.45;86.84;99736.94;5227868;28;20208;-83
2023/02/14 08:49:56;;;;;;;23.93;19.80;;;2.70;99.90;;;3.80;83.57;99723.25;5227616;28;20232;-83
2023/02/14 08:52:29;;;;;;;24.67;19.57;;;3.10;99.90;;;3.96;83.57;99720.84;5224467;28;20239;-82
2023/02/14 08:55:03;;;;;;;23.07;19.40;;;3.20;99.90;;;3.81;84.11;99721.66;5228991;28;20596;-82
2023/02/14 08:57:36;;;;;;;27.60;21.73;;;3.00;99.90;;;4.07;83.97;99720.41;5225479;28;20228;-83
2023/02/14 09:00:11;;;;;;;30.00;22.40;;;3.30;99.90;;;4.25;82.67;99720.66;5229625;28;20201;-82
2023/02/14 09:02:44;;;;;;;43.03;29.47;;;3.50;99.90;;;4.37;82.06;99706.84;5228297;28;20213;-82
2023/02/14 09:05:20;;;;;;;29.63;24.07;;;3.70;99.90;;;4.56;81.24;99708.88;5225611;28;20238;-83
2023/02/14 09:07:55;;;;;;;23.77;20.00;;;3.80;99.90;;;4.78;78.92;99700.38;5228936;28;20215;-82
2023/02/14 09:10:28;;;;;;;27.30;21.13;;;4.10;99.90;;;4.69;80.59;99707.88;5228732;28;20196;-83
2023/02/14 09:13:01;;;;;;;25.13;20.33;;;4.00;99.90;;;4.74;81.07;99708.34;5226488;28;20230;-82
2023/02/14 09:15:34;;;;;;;26.23;21.67;;;4.10;99.90;;;4.79;81.00;99709.75;5228686;28;20222;-82
2023/02/14 09:18:07;;;;;;;25.83;22.13;;;4.10;99.90;;;5.12;79.85;99704.00;5226535;28;20238;-82
2023/02/14 09:20:44;;;;;;;29.23;23.00;;;4.30;99.90;;;5.09;79.66;99696.97;5227427;28;20205;-82
2023/02/14 09:23:17;;;;;;;22.00;19.20;;;4.40;99.90;;;5.21;78.63;99697.41;5228381;28;20920;-82
2023/02/14 09:25:50;;;;;;;23.47;19.43;;;4.60;99.90;;;5.32;78.28;99694.41;5220116;28;20201;-82
2023/02/14 09:28:23;;;;;;;23.27;18.90;;;4.60;99.90;;;5.46;77.61;99694.94;5228864;28;20264;-82
2023/02/14 09:30:57;;;;;;;22.23;19.60;;;4.70;99.90;;;5.51;78.39;99692.16;5224419;28;20205;-83
2023/02/14 09:39:13;;;;;;;20.63;18.37;;;5.30;99.90;;;6.01;77.43;99681.41;5227461;28;20247;-82
2023/02/14 09:42:13;;;;;;;23.17;18.40;;;5.30;99.90;;;6.18;75.40;99679.69;5221490;28;20210;-82
2023/02/14 09:44:51;;;;;;;21.50;18.90;;;5.50;99.90;;;6.16;75.40;99671.06;5227627;28;20217;-83
2023/02/14 09:47:35;;;;;;;20.40;17.00;;;5.50;99.90;;;6.24;75.18;99678.72;5228803;28;20201;-83
2023/02/14 09:50:19;;;;;;;20.23;18.13;;;5.50;99.90;;;6.21;76.30;99680.94;5228341;28;20201;-83
2023/02/14 09:52:58;;;;;;;21.10;17.97;;;5.60;99.90;;;6.34;75.84;99672.03;5227755;28;20203;-82
2023/02/14 09:55:39;;;;;;;22.73;18.50;;;5.60;99.90;;;6.23;75.26;99668.38;5223379;28;20217;-82
2023/02/14 09:58:21;;;;;;;21.33;18.63;;;5.60;99.90;;;6.41;76.45;99674.44;5223919;28;20229;-83
2023/02/14 10:01:03;;;;;;;21.33;17.33;;;5.70;99.90;;;6.69;74.43;99673.97;5214077;28;20250;-82
2023/02/14 10:03:52;;;;;;;20.47;17.17;;;6.00;99.90;;;6.65;74.26;99671.88;5227303;28;20219;-82
2023/02/14 10:06:47;;;;;;;18.77;16.70;;;6.00;99.90;;;6.65;75.65;99669.34;5221434;28;20236;-82
2023/02/14 10:09:46;;;;;;;18.83;16.63;;;6.10;99.90;;;6.88;74.54;99660.59;5214097;28;20688;-82
2023/02/14 10:12:26;;;;;;;19.40;17.23;;;6.20;99.90;;;6.92;74.58;99663.59;5228567;28;20196;-83
2023/02/14 10:15:04;;;;;;;19.60;17.20;;;6.30;99.90;;;7.09;73.34;99665.28;5218677;28;20224;-82
2023/02/14 10:17:41;;;;;;;20.37;16.50;;;6.40;99.90;;;7.20;73.13;99672.31;5209512;28;20647;-82
2023/02/14 10:20:25;;;;;;;18.50;16.63;;;6.60;99.90;;;7.18;73.65;99666.22;5223891;28;20565;-82
2023/02/14 10:23:05;;;;;;;18.77;16.83;;;6.60;99.90;;;7.43;72.23;99666.97;5231473;28;20200;-82
2023/02/14 10:25:46;;;;;;;19.77;17.67;;;6.80;99.90;;;7.46;71.72;99666.38;5227838;28;20240;-82
2023/02/14 10:28:26;;;;;;;19.37;17.27;;;6.80;99.90;;;7.51;71.62;99660.09;5224215;28;20638;-82
2023/02/14 10:31:18;;;;;;;17.90;15.83;;;6.70;99.90;;;7.55;71.81;99654.53;5220417;28;20579;-81
2023/02/14 10:33:55;;;;;;;20.57;17.00;;;6.90;99.90;;;7.73;70.50;99652.03;5233222;28;20217;-82
2023/02/14 10:36:51;;;;;;;18.60;16.17;;;7.10;99.90;;;7.65;71.10;99647.06;5228451;28;20193;-82
2023/02/14 10:39:49;;;;;;;19.17;17.10;;;7.00;99.90;;;7.83;70.18;99644.50;5227794;28;20247;-82
2023/02/14 10:42:33;;;;;;;18.30;15.73;;;7.10;99.90;;;7.84;70.31;99641.22;5227357;28;20200;-82
2023/02/14 10:45:23;;;;;;;17.13;15.33;;;7.20;99.90;;;7.75;71.73;99628.50;5225889;28;20229;-82
2023/02/14 10:48:07;;;;;;;18.43;16.43;;;7.20;99.90;;;8.05;69.69;99632.19;5225822;28;20228;-82
2023/02/14 10:50:50;;;;;;;18.50;16.60;;;7.40;99.90;;;8.29;67.78;99629.41;5233087;28;20287;-82
2023/02/14 10:53:34;;;;;;;18.23;16.33;;;7.60;99.90;;;8.31;67.33;99634.66;5228313;28;20303;-80
2023/02/14 10:56:12;;;;;;;18.50;16.50;;;7.70;99.90;;;8.02;68.38;99627.72;5230825;28;20280;-82
2023/02/14 10:58:50;;;;;;;18.30;16.37;;;7.40;99.90;;;7.94;68.54;99617.56;5225808;28;20210;-82
2023/02/14 11:01:24;;;;;;;17.77;15.93;;;7.30;99.90;;;8.09;68.65;99617.34;5224181;28;20208;-82
2023/02/14 11:04:02;;;;;;;17.83;15.93;;;7.40;99.90;;;8.15;67.61;99606.84;5232875;28;20217;-82
2023/02/14 11:06:36;;;;;;;18.60;16.40;;;7.60;99.90;;;8.08;69.49;99613.00;5235532;28;20221;-82
2023/02/14 11:09:10;;;;;;;16.60;14.80;;;7.50;99.90;;;8.03;69.57;99601.47;5228892;28;20856;-81
2023/02/14 11:11:49;;;;;;;18.67;16.77;;;7.40;99.90;;;8.36;68.13;99595.25;5224821;28;20633;-81